Tiempo atmosférico en la estación meteorológica de San Vicente de la Barquera, Cantabria (39 m.)



Fecha
DESCASC
Temp. máxima en grados centígrados (hora)
DESCASC
Temp. mínima en grados centígrados (hora)
DESCASC
Temp. media en grados centígrados
DESCASC
Racha de viento máxima en m/sg (hora)
DESCASC
Velocidad máxima media en intervalos de 10 minutos(hora)
DESCASC
Precipitaciones diarias en mm
DESCASC
Precipitaciones de 00:00 a 06:00 en mm
DESCASC
Precipitaciones de 06:00 a 12:00 en mm
DESCASC
Precipitaciones de 12:00 a 18:00 en mm
DESCASC
Precipitaciones de 18:00 a 24:00 en mm
DESCASC
22-11-2020 15.8 (16:10) 5.4 (05:30) 10.6 5.28 (08:30) 4.17 (08:30) 0 0 0 0 0
21-11-2020 14.6 (14:20) 5.7 (07:20) 10.2 9.72 (16:30) 6.39 (15:30) 0 0 0 0 0
20-11-2020 16.3 (13:20) 9.7 (23:50) 13 9.44 (16:00) 6.67 (16:00) 0 0 0 0 0
19-11-2020 17.2 (01:50) 11.3 (00:00) 14.3 10 (01:00) 7.5 (03:10) 6.9 3 3.6 0.2 0.1
18-11-2020 22.5 (12:40) 10.4 (00:00) 16.4 5.83 (23:20) 4.17 (21:30) 0 0 0 0 0
17-11-2020 18.5 (16:10) 8.1 (00:00) 13.3 4.72 (23:10) 3.89 (23:20) 0 0 0 0 0
16-11-2020 18.3 (12:40) 9.8 (00:00) 14 6.94 (03:10) 3.89 (03:50) 0 0 0 0 0
15-11-2020 22.1 (10:20) 13.3 (00:00) 17.7 14.17 (16:20) 10 (18:10) 1.7 0 0 1 0.7
14-11-2020 20.1 (11:20) 9.6 (00:00) 14.9 6.39 (13:10) 4.44 (05:00) 0 0 0 0 0
13-11-2020 21.4 (12:30) 10.7 (00:00) 16 5.28 (10:00) 4.17 (09:00) 0 0 0 0 0
12-11-2020 18.8 (11:20) 12.7 (00:00) 15.7 5.56 (06:10) 3.89 (06:00) 0 0 0 0 0
11-11-2020 19.4 (13:20) 8.3 (00:00) 13.8 5 (09:00) 3.61 (06:10) 0 0 0 0 0
10-11-2020 18.3 (12:30) 12 (00:00) 15.1 5.83 (17:20) 3.89 (17:10) 0 0 0 0 0
09-11-2020 19.7 (00:00) 11.2 (00:00) 15.5 8.06 (17:20) 5.83 (17:20) 2.4 0 0 0.7 1.7
08-11-2020 21.5 (15:40) 15.7 (00:00) 18.6 10.28 (15:10) 5 (13:10) 0 0 0 0 0
07-11-2020 19.8 (00:40) 13.8 (00:00) 16.8 6.67 (05:50) 5 (08:30) 0 0 0 0 0
06-11-2020 23.4 (14:50) 17.2 (00:00) 20.3 15.56 (22:40) 8.33 (07:00) 0 0 0 0 0
05-11-2020 17.7 (23:00) 10.1 (00:00) 13.9 13.61 (14:10) 9.17 (14:20) 0 0 0 0 0
04-11-2020 14.1 (13:40) 9.1 (00:00) 11.6 13.33 (18:20) 5.83 (18:20) 3.2 0.9 0.3 0 2
03-11-2020 13.6 (16:40) 9.5 (00:00) 11.6 13.33 (08:50) 10 (08:50) 9.5 0.1 1.6 5.2 2.6
02-11-2020 25.2 (11:50) 12.1 (00:00) 18.7 18.33 (12:10) 11.94 (12:10) 6.1 0 0 0.9 5.2
01-11-2020 24.8 (13:50) 14.8 (00:00) 19.8 6.39 (15:10) 4.44 (15:10) 0 0 0 0 0
31-10-2020 21.5 (13:10) 10.3 (00:00) 15.9 6.39 (08:40) 5 (08:40) 0 0 0 0 0
30-10-2020 19.8 (12:10) 10.9 (00:00) 15.3 8.89 (05:40) 4.17 (23:50) 0 0 0 0 0
29-10-2020 19 (12:20) 11.2 (00:00) 15.1 4.17 (23:30) 3.33 (00:40) 0 0 0 0 0
28-10-2020 20 (15:10) 13 (00:00) 16.5 10.83 (00:40) 6.67 (00:40) 0.1 0.1 0 0 0
27-10-2020 22.3 (14:30) 10.3 (00:00) 16.3 13.89 (20:00) 8.89 (20:10) 0.1 0 0 0 0.1

Gráficas

Temp. máximas Temp. mínimas Temp. medias Precipitaciones Rachas de viento máximas Velocidades máximas media en intervalos de 10 minutos

Datos horarios

Fecha y hora oficial Temperatura (ºC) Velocidad del viento (km/h) Dirección del viento Racha (km/h) Dirección de racha Precipitación (mm) Presión (hPa) Tendencia (hPa) Humedad (%)
2020-11-25 23:00:00 10.9 12 Sur 16 Sur 0 1004.9 -0.5 94
2020-11-25 22:00:00 11.2 10 Sur 12 Sur 0 1005.2 -0.7 93
2020-11-25 21:00:00 11.6 8 Sur 11 Sur 0 1005.4 -0.4 93
2020-11-25 20:00:00 13.1 4 Sur 13 Sudeste 0 1005.4 -0.4 92
2020-11-25 19:00:00 14.1 8 Sudeste 15 Sudeste 0 1005.9 0.1 92
2020-11-25 18:00:00 15 5 Este 20 Este 0 1005.8 -0.2 90
2020-11-25 17:00:00 15.5 6 Este 17 Este 0 1005.8 -0.8 90
2020-11-25 16:00:00 15.7 11 Este 18 Este 0 1005.8 -1.3 88
2020-11-25 15:00:00 15.9 11 Nordeste 18 Este 0 1006 -1.8 87
2020-11-25 14:00:00 15.9 6 Nordeste 11 Nordeste 0 1006.6 -1.1 88
2020-11-25 13:00:00 16.2 6 Norte -- -- -- 1007.1 -0.9 90
2020-11-25 12:00:00 15.8 4 Norte 7 Sur 0 1007.8 0 90
2020-11-25 11:00:00 14.6 5 Sur 7 Sur 0 1007.7 -- 91
2020-11-25 10:00:00 13.3 6 Sur 11 Sur 0 1008 -- 92
2020-11-25 09:00:00 12.9 9 Sur 15 Noroeste 0 1007.8 -- 91
2020-11-25 08:00:00 14.1 5 Oeste 28 Oeste 0 1007.4 -- 91
2020-11-25 07:00:00 14.5 18 Oeste 33 Oeste 0 1007 -- 86
2020-11-25 06:00:00 14.8 16 Oeste 29 Oeste 0 1006.5 -- 60
2020-11-25 05:00:00 13.9 4 Sudoeste 16 Sudoeste 0 1006 -- 56
2020-11-25 04:00:00 14.1 4 Sur 13 Sudoeste 0 1006.3 -- 55
2020-11-25 03:00:00 12.6 5 Sur 17 Sudoeste 0 1006.5 -- 66
2020-11-25 02:00:00 13.4 6 Sudoeste 18 Sudoeste 0 1007.3 -- 61
2020-11-25 01:00:00 11.3 5 Sudoeste 13 Sudoeste 0 1008.1 -- 76
2020-11-25 00:00:00 10.2 4 Sudoeste 18 Sur 0 1008.4 -- 91
2020-11-24 23:00:00 9.8 8 Sur 16 Sudoeste 0 1008.6 -- 91
2020-11-24 22:00:00 10.1 12 Sudoeste 18 Sudoeste 0 1009.2 -- 90
2020-11-24 21:00:00 11.9 9 Sur 17 Sur 0 1010 -- 84
2020-11-24 20:00:00 11.6 14 Sur 17 Sur 0 1010.5 -- 89
2020-11-24 19:00:00 12.2 12 Sur 14 Sur 0 1011.1 -- 88
2020-11-24 18:00:00 13.8 6 Sur 9 Sur 0 1011.3 -- 87
2020-11-24 17:00:00 15 0 Calma 10 Sudeste 0 1011.5 -- 79
2020-11-24 16:00:00 17.3 0 Calma 8 Nordeste 0 1011.8 -- 78
2020-11-24 15:00:00 17.4 0 Calma -- -- 0 1012.4 -- 74
2020-11-24 14:00:00 16.7 0 Calma 0 Calma 0 1013.5 -- 70
2020-11-24 13:00:00 16.6 0 Calma 6 Sur 0 1014.7 -- 68
2020-11-24 12:00:00 14.8 0 Calma 12 Sudoeste 0 1015.5 -- 70
2020-11-24 11:00:00 11.5 10 Sudoeste 15 Sur 0 1015.9 -- 79
2020-11-24 10:00:00 9.7 11 Sudoeste 14 Sudoeste 0 1015.7 -- 82
2020-11-24 09:00:00 7.8 13 Sudoeste 18 Sudoeste 0 1015.3 -- 84
2020-11-24 08:00:00 7.2 11 Sur 17 Sudoeste 0 1014.9 -- 88
2020-11-24 07:00:00 7.4 13 Sudoeste 15 Sudoeste 0 1014.5 -- 91
2020-11-24 06:00:00 7.4 10 Sur 15 Sur 0 1014.7 -- 92
2020-11-24 05:00:00 7.7 10 Sudoeste 16 Sur 0 1014.9 -- 91
2020-11-24 04:00:00 7.8 11 Sudoeste 13 Sudoeste 0 1015.5 -- 91
2020-11-24 03:00:00 7.7 11 Sudoeste 14 Sudoeste 0 1016 -- 92
2020-11-24 02:00:00 7.6 12 Sur 14 Sudoeste 0 1016.7 -- 93
2020-11-24 01:00:00 7.8 10 Sudoeste 15 Sur 0 1017.5 -- 93
2020-11-24 00:00:00 8.1 11 Sudoeste 14 Sudoeste 0 1018.1 -- 93
2020-11-23 23:00:00 8.4 12 Sur 14 Sur 0 1019 -- 93
2020-11-23 22:00:00 9 10 Sudoeste 14 Sur 0 1019.7 -- 93
2020-11-23 21:00:00 9.7 10 Sudoeste 11 Sudoeste 0 1020 -- 92
2020-11-23 20:00:00 10.7 9 Sur 11 Sur 0 1020.4 -- 91
2020-11-23 19:00:00 12.8 5 Sudeste 10 Sudeste 0 1020.7 -- 82
2020-11-23 18:00:00 13.6 6 Sudeste 12 Este 0 1020.6 -- 85
2020-11-23 17:00:00 14.7 5 Este 19 Este 0 1020.5 -- 80
2020-11-23 16:00:00 15.1 10 Este 21 Este 0 1020.9 -- 73
2020-11-23 15:00:00 15.2 11 Este 17 Nordeste 0 1021.2 -- 79
2020-11-23 14:00:00 15.3 10 Nordeste 14 Nordeste 0 1021.9 -- 73
2020-11-23 13:00:00 14.9 0 Calma 11 Sur 0 1022.9 -- 73
2020-11-23 12:00:00 14.4 2 Este 9 Sur 0 1023.8 -- 79
2020-11-23 11:00:00 12.1 4 Sudoeste 14 Sur 0 1023.7 -- 85
2020-11-23 10:00:00 8.5 10 Sudoeste 15 Sudoeste 0 1023.6 -- 90
2020-11-23 09:00:00 7.1 13 Sudoeste 17 Sudoeste 0 1023.7 -- 92
2020-11-23 08:00:00 6.1 14 Sudoeste 19 Sudoeste 0 1023.3 -- 93
2020-11-23 07:00:00 6.3 14 Sudoeste 18 Sudoeste 0 1023.2 -- 93
2020-11-23 06:00:00 6.5 14 Sudoeste 17 Sudoeste 0 1023.2 -- 93
2020-11-23 05:00:00 6.7 13 Sudoeste 17 Sudoeste 0 1023.3 -- 93
2020-11-23 04:00:00 6.8 13 Sudoeste 17 Sudoeste 0 1023.7 -- 93
2020-11-23 03:00:00 7 14 Sudoeste 17 Sudoeste 0 1023.8 -- 93
2020-11-23 02:00:00 7.3 14 Sudoeste 17 Sudoeste 0 1024 -- 93
2020-11-23 01:00:00 7.7 13 Sudoeste 17 Sudoeste 0 1024.2 -- 93
2020-11-23 00:00:00 8.1 13 Sudoeste 16 Sudoeste 0 1024.2 -- 93
2020-11-22 23:00:00 8.6 12 Sudoeste 15 Sudoeste 0 1024.4 -- 93
2020-11-22 22:00:00 9.1 13 Sudoeste 15 Sudoeste 0 1024.2 -- 93
2020-11-22 21:00:00 10.4 10 Sudoeste 14 Sudoeste 0 1023.8 -- 93
2020-11-22 20:00:00 10.7 10 Sudoeste 12 Sudoeste 0 1023.5 -- 93
2020-11-22 19:00:00 11.6 6 Sur 9 Sur 0 1023.1 -- 92
2020-11-22 18:00:00 13 4 Sudoeste 10 Norte 0 1022.8 -- 91
2020-11-22 17:00:00 13.8 4 Noroeste 10 Noroeste 0 1022.4 -- 88
2020-11-22 16:00:00 15.6 0 Calma 5 Nordeste 0 1021.9 -- 84
2020-11-22 15:00:00 15 0 Calma 12 Oeste 0 1022 -- 85
2020-11-22 14:00:00 15.2 7 Noroeste 10 Noroeste 0 1022.5 -- 84
2020-11-22 13:00:00 15.1 0 Calma 7 Norte 0 1022.9 -- 82
2020-11-22 12:00:00 14.6 5 Sur 11 Sudoeste 0 1023.3 -- 74
2020-11-22 11:00:00 11.4 9 Sudoeste 15 Sudoeste 0 1023.5 -- 78
2020-11-22 10:00:00 8 12 Sudoeste 17 Sudoeste 0 1023.2 -- 88
2020-11-22 09:00:00 6.5 14 Sudoeste 19 Sudoeste 0 1022.6 -- 91
2020-11-22 08:00:00 6.3 14 Sudoeste 17 Sudoeste 0 1022.2 -- 91
2020-11-22 07:00:00 6 11 Sudoeste 16 Sudoeste 0 1021.6 -- 93
2020-11-22 06:00:00 5.9 11 Sudoeste 15 Sur 0 1021.3 -- 93
2020-11-22 05:00:00 5.6 10 Sur 15 Sudoeste 0 1021.1 -- 93
2020-11-22 04:00:00 5.7 9 Sudoeste 15 Sudoeste 0 1020.7 -- 93
2020-11-22 03:00:00 5.8 12 Sudoeste 15 Sudoeste 0 1020.7 -- 93
2020-11-22 02:00:00 6.8 6 Sudoeste 15 Sudoeste 0 1020.6 -- 93
2020-11-22 01:00:00 6 12 Sudoeste 15 Sudoeste 0 1020.7 -- 93
2020-11-22 00:00:00 6.2 11 Sudoeste 15 Sudoeste 0 1020.9 -- 93
2020-11-21 23:00:00 7.1 11 Sudoeste 13 Sudoeste 0 1021.2 -- 93
2020-11-21 22:00:00 7.8 10 Sur 12 Sur 0 1021.8 -- 92
2020-11-21 21:00:00 8.4 9 Sur 12 Sur 0 1022.1 -- 91
2020-11-21 20:00:00 9.7 7 Sur 20 Este 0 1022.2 -- 87
2020-11-21 19:00:00 11.6 9 Este 23 Este 0 1022.3 -- 80
2020-11-21 18:00:00 12.8 8 Este 26 Este 0 1022 -- 77
2020-11-21 17:00:00 13.7 17 Este 35 Este 0 1021.9 -- 72
2020-11-21 16:00:00 14.1 22 Este 34 Este 0 1021.9 -- 71
2020-11-21 15:00:00 14.4 17 Este 28 Nordeste 0 1022.1 -- 61
2020-11-21 14:00:00 14.2 8 Este 25 Este 0 1022.7 -- 59
2020-11-21 13:00:00 13.3 9 Este 21 Nordeste 0 1023.4 -- 61
2020-11-21 12:00:00 12.7 8 Este 15 Este 0 1024.5 -- 65
2020-11-21 11:00:00 10.8 8 Sudeste 17 Sudeste 0 1024.7 -- 74
2020-11-21 10:00:00 7.6 8 Sur 14 Sudeste 0 1024.8 -- 92
2020-11-21 09:00:00 6.1 9 Sur 14 Sur 0 1025 -- 94
2020-11-21 08:00:00 6.1 10 Sur 14 Sur 0 1025.4 -- 94
2020-11-21 07:00:00 6.1 10 Sur 15 Sudeste 0 1025.2 -- 94
2020-11-21 06:00:00 6.2 10 Sur 15 Sur 0 1025.3 -- 93
2020-11-21 05:00:00 6.6 10 Sur 15 Sur 0 1025.3 -- 93
2020-11-21 04:00:00 6.9 11 Sur 15 Sur 0 1025.5 -- 93
2020-11-21 03:00:00 7.3 10 Sur 14 Sur 0 1025.7 -- 93
2020-11-21 02:00:00 8.1 6 Sur 12 Sur 0 1026.4 -- 92
2020-11-21 01:00:00 8.7 8 Sudeste 13 Este 0 1027.3 -- 92
2020-11-21 00:00:00 9.7 8 Sudeste 16 Sudeste 0 1027.8 -- 91
2020-11-20 23:00:00 10 6 Sudeste 16 Sudeste 0 1027.9 -- 91
2020-11-20 22:00:00 10.1 9 Sudeste 15 Sudeste 0 1028.5 -- 91
2020-11-20 21:00:00 10.7 4 Sur 14 Sudeste 0 1028.9 -- 91
2020-11-20 20:00:00 11.8 8 Sudeste 18 Sudeste 0 1029.5 -- 85
2020-11-20 19:00:00 12.2 12 Sudeste 20 Sudeste 0 1029.6 -- 82
2020-11-20 18:00:00 13.1 11 Este 20 Este 0 1028.7 -- 81
2020-11-20 17:00:00 13.9 11 Este 33 Este 0 1028.5 -- 76
2020-11-20 16:00:00 14.5 24 Nordeste 34 Nordeste 0 1029.4 -- 74
2020-11-20 15:00:00 14.8 17 Este 25 Este 0 1029.1 -- 67
2020-11-20 14:00:00 15.4 6 Este 22 Este 0 1029.6 -- 60
2020-11-20 13:00:00 15.8 13 Este 22 Este 0 1030.8 -- 61
2020-11-20 12:00:00 15.6 10 Este 21 Este 0 1032.1 -- 61
2020-11-20 11:00:00 14.8 5 Este 13 Este 0 1031.9 -- 72
2020-11-20 10:00:00 12 4 Sur 11 Sur 0 1032 -- 90
2020-11-20 09:00:00 10.4 9 Sur 15 Sur 0 1031.9 -- 92
2020-11-20 08:00:00 10.4 8 Sur 12 Sur 0 1031.9 -- 92
2020-11-20 07:00:00 10.5 10 Sur 13 Sur 0 1031.9 -- 92
2020-11-20 06:00:00 10.6 9 Sur 13 Sudoeste 0 1032.2 -- 92
2020-11-20 05:00:00 10.4 9 Sudoeste 12 Sur 0 1032.1 -- 92
2020-11-20 04:00:00 10.6 8 Sur 10 Sur 0 1032.6 -- 92
2020-11-20 03:00:00 10.9 7 Sur 10 Sudoeste 0 1032.8 -- 91
2020-11-20 02:00:00 11.2 4 Sur 9 Sur 0 1032.9 -- 91
2020-11-20 01:00:00 11.2 6 Sudoeste 13 Sur 0 1033.2 -- 91
2020-11-20 00:00:00 11.4 5 Sur 12 Sur 0 1033.9 -- 92
2020-11-19 23:00:00 11.7 8 Sur 11 Sur 0 1033.8 -- 92
2020-11-19 22:00:00 11.5 6 Sudoeste 11 Sur 0 1033.9 -- 92
2020-11-19 21:00:00 11.7 8 Sur 12 Sur 0 1033.6 -- 92
2020-11-19 20:00:00 11.9 6 Sur 12 Sur 0 1033.6 -- 91
2020-11-19 19:00:00 11.9 4 Sudeste 12 Este 0.1 1033.6 -- 91
2020-11-19 18:00:00 12.7 6 Sur 12 Sur 0 1033.4 -- 91
2020-11-19 17:00:00 13 9 Sur 13 Nordeste 0 1033.5 -- 89
2020-11-19 16:00:00 13.2 7 Norte 19 Norte 0 1033.6 -- 88
2020-11-19 15:00:00 13.8 9 Nordeste 22 Nordeste 0 1033.2 -- 90
2020-11-19 14:00:00 14 0 Calma 12 Este 0 1032.5 -- 93
2020-11-19 13:00:00 13 4 Nordeste 21 Nordeste 0.2 1032.7 -- 94
2020-11-19 12:00:00 13 9 Norte 20 Nordeste 0.5 1033.1 -- 94
2020-11-19 11:00:00 13 12 Norte 23 Norte 0 1032.9 -- 94
2020-11-19 10:00:00 12.8 11 Norte 26 Norte 0.6 1032.1 -- 94
2020-11-19 09:00:00 13.2 8 Norte 19 Norte 1.5 1032.3 -- 94
2020-11-19 08:00:00 13.6 14 Norte 32 Norte 0.3 1031.4 -- 94
2020-11-19 07:00:00 14 26 Norte 33 Norte 0.7 1029.4 -- 94
2020-11-19 06:00:00 15 8 Norte 17 Norte 0.9 1028.6 -- 94
2020-11-19 05:00:00 15.2 5 Norte 18 Norte 2.1 1028.3 -- 94
2020-11-19 04:00:00 15.6 19 Norte 36 Norte 0 1027.5 -- 94
2020-11-19 03:00:00 16.2 26 Norte 33 Norte 0 1026.5 -- 94
2020-11-19 02:00:00 16.9 13 Oeste 31 Oeste 0 1026.2 -- 92
2020-11-19 01:00:00 17 21 Oeste 36 Oeste 0 1025.4 -- 91
2020-11-19 00:00:00 15 12 Sudoeste 21 Sudoeste 0 1024.4 -- 80
2020-11-18 23:00:00 13.4 13 Sur 20 Sudoeste 0 1024.2 -- 90
2020-11-18 22:00:00 13.5 14 Sudoeste 18 Sudoeste 0 1023.2 -- 88
2020-11-18 21:00:00 14.4 13 Sudoeste 17 Sudoeste 0 1022.1 -- 87
2020-11-18 20:00:00 14.5 12 Sudoeste 14 Sudoeste 0 1021.8 -- 86
2020-11-18 19:00:00 15.9 8 Sudoeste 11 Sudoeste 0 1021.2 -- 79
2020-11-18 18:00:00 17.9 2 Oeste 7 Noroeste 0 1020.3 -- 66
2020-11-18 17:00:00 18.2 0 Calma -- -- 0 1019.7 -- 70
2020-11-18 16:00:00 19.2 0 Calma -- -- 0 1019.4 -- 73
2020-11-18 15:00:00 19.3 0 Calma 9 Este 0 1019 -- 77
2020-11-18 14:00:00 18.3 6 Nordeste 10 Norte 0 1018.8 -- 85
2020-11-18 13:00:00 20.5 0 Calma 6 Sudoeste 0 1018.8 -- 60
2020-11-18 12:00:00 20.6 5 Sudoeste 13 Sudoeste 0 1019.2 -- 66
2020-11-18 11:00:00 16.7 11 Sudoeste 14 Sudoeste 0 1019.1 -- 77
2020-11-18 10:00:00 14.4 10 Sudoeste 15 Sudoeste 0 1018.7 -- 81
2020-11-18 09:00:00 14.1 9 Sudoeste 15 Sur 0 1017.8 -- 76
2020-11-18 08:00:00 12.2 11 Sur 15 Sur 0 1017 -- 84
2020-11-18 07:00:00 14.8 3 Oeste 16 Sudoeste 0 1016.5 -- 79
2020-11-18 06:00:00 13.3 14 Sudoeste 17 Sur 0 1015.9 -- 75
2020-11-18 05:00:00 12 11 Sur 16 Sudoeste 0 1015.6 -- 82
2020-11-18 04:00:00 11.2 9 Sur 18 Sur 0 1015.5 -- 87
2020-11-18 03:00:00 11.5 12 Sudoeste 14 Sudoeste 0 1015.6 -- 87
2020-11-18 02:00:00 12.6 9 Sudoeste 12 Sudoeste 0 1015.8 -- 82
2020-11-18 01:00:00 11.9 7 Sudoeste 14 Sudoeste 0 1016.1 -- 86
2020-11-18 00:00:00 12.3 13 Sudoeste 17 Sudoeste 0 1016.1 -- 83
2020-11-17 23:00:00 12.2 13 Sudoeste 16 Sudoeste 0 1016.1 -- 88
2020-11-17 22:00:00 12.9 10 Sudoeste 17 Sudoeste 0 1016.3 -- 89
2020-11-17 21:00:00 13.1 11 Sudoeste 16 Sudoeste 0 1016.3 -- 92
2020-11-17 20:00:00 13.3 12 Sudoeste 15 Sudoeste 0 1016.3 -- 92
2020-11-17 19:00:00 14.3 11 Sudoeste 14 Sudoeste 0 1016.3 -- 91
2020-11-17 18:00:00 15.4 3 Sudeste 6 Sudeste 0 1016.4 -- 87
2020-11-17 17:00:00 16.5 0 Calma 6 Nordeste 0 1016.5 -- 84
2020-11-17 16:00:00 18.3 0 Calma 12 Nordeste 0 1016.7 -- 79
2020-11-17 15:00:00 16.6 6 Este 17 Nordeste 0 1017 -- 82
2020-11-17 14:00:00 16.1 6 Nordeste 12 Este 0 1017.6 -- 78
2020-11-17 13:00:00 15.6 0 Calma 5 Nordeste 0 1018.5 -- 76
2020-11-17 12:00:00 15.3 0 Calma 5 Sur 0 1019.5 -- 77
2020-11-17 11:00:00 14.7 0 Calma 11 Sudoeste 0 1019.7 -- 81
2020-11-17 10:00:00 11 8 Sudoeste 14 Sudoeste 0 1019.9 -- 90
2020-11-17 09:00:00 9.1 11 Sudoeste 17 Sudoeste 0 1019.9 -- 93
2020-11-17 08:00:00 8.6 13 Sur 17 Sudoeste 0 1019.3 -- 93
2020-11-17 07:00:00 8.8 11 Sur 14 Sur 0 1019.7 -- 93
2020-11-17 06:00:00 9 9 Sudoeste 14 Sudoeste 0 1019.7 -- 93
2020-11-17 05:00:00 9.4 5 Oeste 14 Sudoeste 0 1019.7 -- 93
2020-11-17 04:00:00 9.1 11 Sudoeste 16 Sur 0 1019.8 -- 93
2020-11-17 03:00:00 8.9 13 Sudoeste 15 Sudoeste 0 1020.5 -- 93
2020-11-17 02:00:00 9.1 13 Sudoeste 15 Sudoeste 0 1021 -- 93
2020-11-17 01:00:00 9.5 10 Sudoeste 14 Sudoeste 0 1021.8 -- 93
2020-11-17 00:00:00 9.8 11 Sudoeste 15 Sudoeste 0 1021.8 -- 93
2020-11-16 23:00:00 10.1 12 Sudoeste 14 Sudoeste 0 1021.9 -- 93
2020-11-16 22:00:00 11.1 11 Sudoeste 13 Sur 0 1021.9 -- 93
2020-11-16 21:00:00 11.8 10 Sur 13 Sur 0 1021.8 -- 92
2020-11-16 20:00:00 12.5 9 Sur 10 Sur 0 1021.7 -- 92
2020-11-16 19:00:00 13.5 6 Sur 8 Sur 0 1021.6 -- 91
2020-11-16 18:00:00 14.7 0 Calma 10 Nordeste 0 1021.6 -- 88
2020-11-16 17:00:00 15.6 8 Este 12 Este 0 1021.4 -- 79
2020-11-16 16:00:00 16.4 4 Nordeste 11 Nordeste 0 1021.2 -- 76
2020-11-16 15:00:00 16.4 2 Nordeste 11 Norte 0 1021.1 -- 72
2020-11-16 14:00:00 16.6 6 Norte 11 Norte 0 1021.4 -- 70
2020-11-16 13:00:00 17.1 3 Nordeste 9 Sudeste 0 1021.2 -- 69
2020-11-16 12:00:00 16.5 0 Calma 7 Sur 0 1021.8 -- 79
2020-11-16 11:00:00 14.8 6 Sur 10 Sudoeste 0 1021.8 -- 88
2020-11-16 10:00:00 13.9 6 Sudoeste 10 Sudoeste 0 1021.6 -- 90
2020-11-16 09:00:00 13.3 6 Sur 10 Sur 0 1020.7 -- 91
2020-11-16 08:00:00 13.5 5 Sudoeste 14 Oeste 0 1020.3 -- 90
2020-11-16 07:00:00 14.7 8 Oeste 16 Oeste 0 1020.1 -- 80
2020-11-16 06:00:00 14.5 4 Oeste 14 Oeste 0 1019.3 -- 81
2020-11-16 05:00:00 14.5 3 Oeste 22 Oeste 0 1019.1 -- 82
2020-11-16 04:00:00 14.8 13 Oeste 25 Noroeste 0 1019.3 -- 82
2020-11-16 03:00:00 14.7 12 Oeste 22 Noroeste 0 1018.5 -- 84
2020-11-16 02:00:00 14.7 4 Oeste 22 Noroeste 0 1018.2 -- 83
2020-11-16 01:00:00 14.6 11 Noroeste 24 Noroeste 0 1018.3 -- 86
2020-11-16 00:00:00 14.4 4 Oeste 24 Oeste 0 1017.6 -- 88
2020-11-15 23:00:00 14.3 16 Oeste 31 Oeste 0.1 1017.4 -- 90
2020-11-15 22:00:00 14 9 Oeste 30 Oeste 0 1016.6 -- 92
2020-11-15 21:00:00 13.7 12 Oeste 27 Oeste 0 1016.3 -- 93
2020-11-15 20:00:00 13.3 17 Oeste 35 Oeste 0.1 1015.5 -- 94
2020-11-15 19:00:00 13.9 22 Noroeste 47 Noroeste 0.5 1014.5 -- 94
2020-11-15 18:00:00 14.6 30 Noroeste 46 Noroeste 0.4 1013.4 -- 94
2020-11-15 17:00:00 15 29 Oeste 51 Oeste 0.3 1012.4 -- 93
2020-11-15 16:00:00 15.3 31 Noroeste 48 Noroeste 0 1011.5 -- 93
2020-11-15 15:00:00 15 21 Oeste 50 Noroeste 0.1 1011.2 -- 94
2020-11-15 14:00:00 15.6 26 Noroeste 41 Noroeste 0.2 1010.9 -- 94
2020-11-15 13:00:00 16.5 18 Noroeste 38 Noroeste 0 1010.1 -- 93
2020-11-15 12:00:00 19 16 Oeste 37 Noroeste 0 1008.9 -- 83
2020-11-15 11:00:00 19.3 18 Oeste 26 Oeste 0 1007.6 -- 72
2020-11-15 10:00:00 21.5 0 Calma 11 Sudoeste 0 1005.9 -- 58
2020-11-15 09:00:00 21 4 Sudoeste 14 Sur 0 1005.7 -- 56
2020-11-15 08:00:00 19.8 0 Calma 13 Oeste 0 1005.3 -- 59
2020-11-15 07:00:00 19.6 2 Oeste 14 Sudoeste 0 1005 -- 57
2020-11-15 06:00:00 19.3 0 Calma 20 Oeste 0 1005.1 -- 53
2020-11-15 05:00:00 19.1 15 Oeste 23 Oeste 0 1005.9 -- 59
2020-11-15 04:00:00 20.9 0 Calma 21 Sur 0 1006.2 -- 54
2020-11-15 03:00:00 20.6 3 Sur 26 Sur 0 1006.2 -- 54
2020-11-15 02:00:00 20.7 3 Sudoeste 19 Sur 0 1007 -- 54
2020-11-15 01:00:00 19.4 3 Sudoeste 16 Sudoeste 0 1007.7 -- 54
2020-11-15 00:00:00 18.5 0 Calma 13 Sur 0 1008 -- 58
2020-11-14 23:00:00 18.8 0 Calma 17 Sudeste 0 1008.5 -- 56
2020-11-14 22:00:00 18.5 6 Sur 13 Sudeste 0 1008.5 -- 60
2020-11-14 21:00:00 17.3 0 Calma 13 Sur 0 1008.7 -- 66
2020-11-14 20:00:00 17.3 0 Calma 7 Sudoeste 0 1009 -- 63
2020-11-14 19:00:00 17.5 0 Calma 9 Sudoeste 0 1008.8 -- 65
2020-11-14 18:00:00 17.3 0 Calma 7 Sur 0 1008.5 -- 70
2020-11-14 17:00:00 18.5 0 Calma 13 Oeste 0 1008.4 -- 60
2020-11-14 16:00:00 18.2 7 Noroeste 12 Oeste 0 1008.1 -- 62
2020-11-14 15:00:00 18 3 Este 8 Este 0 1008 -- 81
2020-11-14 14:00:00 18.7 2 Sudeste 23 Noroeste 0 1008.6 -- 71
2020-11-14 13:00:00 18.1 13 Noroeste 22 Oeste 0 1008.9 -- 69
2020-11-14 12:00:00 18.3 6 Noroeste 15 Noroeste 0 1008.9 -- 73
2020-11-14 11:00:00 18.5 2 Oeste 14 Sudoeste 0 1009.2 -- 62
2020-11-14 10:00:00 14 9 Sur 18 Sur 0 1009.1 -- 69
2020-11-14 09:00:00 10.9 14 Sudoeste 20 Sur 0 1009.3 -- 79
2020-11-14 08:00:00 10.9 14 Sur 19 Sur 0 1009.1 -- 76
2020-11-14 07:00:00 11.2 13 Sur 17 Sur 0 1009.4 -- 78
2020-11-14 06:00:00 10 15 Sur 19 Sudoeste 0 1009.6 -- 85
2020-11-14 05:00:00 10.2 16 Sur 20 Sudoeste 0 1009.7 -- 86
2020-11-14 04:00:00 10.9 12 Sudoeste 18 Sur 0 1010.3 -- 83
2020-11-14 03:00:00 10.6 13 Sur 17 Sudoeste 0 1010.7 -- 88
2020-11-14 02:00:00 10.7 11 Sudoeste 17 Sudoeste 0 1010.8 -- 91
2020-11-14 01:00:00 10.5 14 Sudoeste 17 Sudoeste 0 1010.6 -- 93
2020-11-14 00:00:00 10.8 14 Sudoeste 16 Sudoeste 0 1011 -- 93
2020-11-13 23:00:00 11.3 13 Sur 16 Sur 0 1011.3 -- 93
2020-11-13 22:00:00 11.7 12 Sur 17 Sur 0 1011.6 -- 93
2020-11-13 21:00:00 13 10 Sudoeste 14 Sudoeste 0 1011.6 -- 92
2020-11-13 20:00:00 13.9 10 Sudoeste 13 Sudoeste 0 1012.1 -- 91
2020-11-13 19:00:00 15.1 8 Sur 10 Sudoeste 0 1011.8 -- 91
2020-11-13 18:00:00 17.1 2 Nordeste 7 Nordeste 0 1011.8 -- 86
2020-11-13 17:00:00 17.9 5 Este 12 Este 0 1012 -- 80
2020-11-13 16:00:00 19.5 5 Este 11 Este 0 1012.3 -- 79
2020-11-13 15:00:00 19.2 4 Este 17 Nordeste 0 1012.5 -- 79
2020-11-13 14:00:00 19.7 8 Nordeste 17 Este 0 1012.5 -- 75
2020-11-13 13:00:00 20.3 6 Nordeste 16 Este 0 1012.9 -- 70
2020-11-13 12:00:00 20.6 8 Sudeste 16 Sudeste 0 1013.5 -- 56
2020-11-13 11:00:00 19.2 7 Este 18 Sudeste 0 1013.5 -- 66
2020-11-13 10:00:00 16.8 11 Sudeste 19 Sudeste 0 1013.4 -- 69
2020-11-13 09:00:00 13.9 15 Sur 17 Sur 0 1013.5 -- 80
2020-11-13 08:00:00 13.1 13 Sur 16 Sur 0 1013.3 -- 80
2020-11-13 07:00:00 13 13 Sudoeste 15 Sudoeste 0 1013.2 -- 82
2020-11-13 06:00:00 13 12 Sudoeste 15 Sudoeste 0 1013.1 -- 85
2020-11-13 05:00:00 13.2 8 Sudoeste 17 Sur 0 1012.7 -- 82
2020-11-13 04:00:00 12.9 9 Sudoeste 14 Sur 0 1012.7 -- 89
2020-11-13 03:00:00 14.7 8 Oeste 14 Oeste 0 1012.2 -- 88
2020-11-13 02:00:00 13.2 8 Sur 12 Sur 0 1012.1 -- 91
2020-11-13 01:00:00 13.9 7 Sudoeste 15 Sudoeste 0 1012 -- 88
2020-11-13 00:00:00 13 8 Sudoeste 13 Sur 0 1011.7 -- 93
2020-11-12 23:00:00 13.4 3 Sudoeste 12 Oeste 0 1012.1 -- 93
2020-11-12 22:00:00 13.2 5 Sur 11 Sudoeste 0 1012 -- 93
2020-11-12 21:00:00 13.5 9 Sudoeste 12 Sudoeste 0 1011.8 -- 93
2020-11-12 20:00:00 15 9 Sudoeste 11 Sudoeste 0 1012 -- 91
2020-11-12 19:00:00 15.3 3 Sudeste 10 Este 0 1012.2 -- 91
2020-11-12 18:00:00 15.9 0 Calma 13 Este 0 1012.3 -- 92
2020-11-12 17:00:00 16.7 4 Este 14 Este 0 1013 -- 88
2020-11-12 16:00:00 17.5 10 Este 15 Este 0 1013.4 -- 87
2020-11-12 15:00:00 17.5 11 Este 17 Este 0 1013.9 -- 90
2020-11-12 14:00:00 17.4 12 Este 17 Este 0 1014.4 -- 90
2020-11-12 13:00:00 17.6 3 Nordeste 9 Noroeste 0 1015.3 -- 88
2020-11-12 12:00:00 18.2 5 Noroeste 12 Noroeste 0 1016 -- 87
2020-11-12 11:00:00 18.2 4 Sur 11 Sur 0 1016.5 -- 88
2020-11-12 10:00:00 15.1 4 Sudoeste 12 Sudoeste 0 1016.6 -- 90
2020-11-12 09:00:00 13.9 6 Sudoeste 12 Sudoeste 0 1016.1 -- 88
2020-11-12 08:00:00 14.1 4 Sudoeste 12 Sudoeste 0 1015.8 -- 88
2020-11-12 07:00:00 14.2 7 Sudoeste 20 Oeste 0 1015.4 -- 82
2020-11-12 06:00:00 15.7 14 Oeste 18 Oeste 0 1015.3 -- 72
2020-11-12 05:00:00 13.8 7 Sur 11 Sudoeste 0 1015.3 -- 86
2020-11-12 04:00:00 14.4 8 Sudoeste 15 Sudoeste 0 1015.5 -- 77
2020-11-12 03:00:00 14.4 12 Sudoeste 17 Sudoeste 0 1015.5 -- 78
2020-11-12 02:00:00 14.3 12 Sur 15 Sur 0 1015.6 -- 82
2020-11-12 01:00:00 14.7 11 Sur 15 Sudoeste 0 1015.9 -- 74
2020-11-12 00:00:00 14.5 9 Sur 14 Sur 0 1015.8 -- 78
2020-11-11 23:00:00 13.9 8 Sur 17 Oeste 0 1015.9 -- 85
2020-11-11 22:00:00 15.6 8 Oeste 16 Oeste 0 1016 -- 85
2020-11-11 21:00:00 15.4 8 Oeste 12 Oeste 0 1014.7 -- 74
2020-11-11 20:00:00 14.8 8 Sudoeste 13 Sur 0 1014 -- 84
2020-11-11 19:00:00 14.5 9 Sur 13 Sur 0 1013.6 -- 91
2020-11-11 18:00:00 15.8 3 Sur 10 Sur 0 1013.8 -- 87
2020-11-11 17:00:00 16.8 0 Calma -- -- 0 1013.8 -- 79
2020-11-11 16:00:00 17.7 0 Calma -- -- 0 1013.4 -- 79
2020-11-11 15:00:00 17.6 0 Calma -- -- 0 1013.5 -- 76
2020-11-11 14:00:00 17.6 0 Calma 8 Sudeste 0 1014.1 -- 73
2020-11-11 13:00:00 17.8 0 Calma 8 Sur 0 1014.8 -- 66
2020-11-11 12:00:00 16.7 0 Calma 6 Sur 0 1015.3 -- 69
2020-11-11 11:00:00 13.9 2 Sudoeste 12 Sur 0 1016 -- 79
2020-11-11 10:00:00 10.8 10 Sur 15 Sudoeste 0 1015.9 -- 88
2020-11-11 09:00:00 9.8 13 Sudoeste 18 Sudoeste 0 1016.4 -- 87
2020-11-11 08:00:00 8.6 12 Sudoeste 17 Sur 0 1016.3 -- 92
2020-11-11 07:00:00 8.3 12 Sur 17 Sudoeste 0 1016.6 -- 92
2020-11-11 06:00:00 9.1 12 Sur 16 Sur 0 1017 -- 92
2020-11-11 05:00:00 9.5 11 Sur 15 Sudoeste 0 1017.7 -- 92
2020-11-11 04:00:00 9.8 12 Sudoeste 16 Sudoeste 0 1017.9 -- 93
2020-11-11 03:00:00 10.4 12 Sudoeste 15 Sudoeste 0 1018.5 -- 93
2020-11-11 02:00:00 10.8 12 Sur 14 Sur 0 1019 -- 94
2020-11-11 01:00:00 11.5 9 Sudoeste 13 Sur 0 1020 -- 94
2020-11-11 00:00:00 12 8 Sur 12 Sudoeste 0 1020.6 -- 94
2020-11-10 23:00:00 12.8 9 Sudoeste 11 Sur 0 1020.9 -- 93
2020-11-10 22:00:00 13.1 9 Sur 10 Sur 0 1021 -- 93
2020-11-10 21:00:00 14 3 Sudoeste 8 Sudoeste 0 1021.1 -- 92
2020-11-10 20:00:00 14.7 5 Sudoeste 7 Sudeste 0 1021.3 -- 92
2020-11-10 19:00:00 15.6 0 Calma 20 Este 0 1021.3 -- 91
2020-11-10 18:00:00 15.9 10 Este 21 Este 0 1021.4 -- 90
2020-11-10 17:00:00 16.2 12 Este 20 Este 0 1021.4 -- 88
2020-11-10 16:00:00 16.3 12 Este 19 Este 0 1021.6 -- 88
2020-11-10 15:00:00 16.8 10 Nordeste 16 Este 0 1021.7 -- 85
2020-11-10 14:00:00 17.5 7 Nordeste 13 Nordeste 0 1022.4 -- 81
2020-11-10 13:00:00 16.9 0 Calma 6 Nordeste 0 1022.9 -- 80
2020-11-10 12:00:00 17 0 Calma 10 Sur 0 1023.4 -- 81
2020-11-10 11:00:00 15.8 0 Calma 11 Sudoeste 0 1023.7 -- 87
2020-11-10 10:00:00 14.3 6 Sur 13 Sudoeste 0 1023.4 -- 92
2020-11-10 09:00:00 12.4 10 Sur 13 Sudoeste 0 1022.8 -- 92
2020-11-10 08:00:00 12.4 10 Sur 13 Sudoeste 0 1022.1 -- 93
2020-11-10 07:00:00 13.2 9 Sur 11 Sur 0 1021.7 -- 92
2020-11-10 06:00:00 13.1 8 Sur 12 Sudoeste 0 1021.8 -- 92
2020-11-10 05:00:00 13.5 5 Sudoeste 10 Sur 0 1021.6 -- 92
2020-11-10 04:00:00 13.4 4 Sudoeste 11 Sudoeste 0 1021.4 -- 93
2020-11-10 03:00:00 13.7 6 Sudoeste 11 Sudoeste 0 1021.4 -- 93
2020-11-10 02:00:00 13.7 5 Sudoeste 8 Sur 0 1021.1 -- 93
2020-11-10 01:00:00 14 3 Sudoeste 15 Oeste 0 1021 -- 93
2020-11-10 00:00:00 14 4 Oeste 16 Sudoeste 0.2 1020.6 -- 93
2020-11-09 23:00:00 13.8 0 Calma 12 Sudoeste 0 1020.8 -- 93
2020-11-09 22:00:00 13.5 9 Sudoeste 14 Sudoeste 0 1020.3 -- 93
2020-11-09 21:00:00 13.7 10 Sur 15 Sudoeste 0 1019.6 -- 93
2020-11-09 20:00:00 14.2 8 Sudoeste 12 Sudoeste 0 1019.3 -- 93
2020-11-09 19:00:00 15.1 4 Sur 17 Oeste 1.5 1018.6 -- 92
2020-11-09 18:00:00 15.8 14 Oeste 29 Oeste 0.7 1018.1 -- 92
2020-11-09 17:00:00 16.7 17 Oeste 26 Oeste 0 1017.3 -- 92
2020-11-09 16:00:00 17.6 13 Oeste 20 Oeste 0 1016.5 -- 92
2020-11-09 15:00:00 17.8 12 Oeste 21 Oeste 0 1016 -- 91
2020-11-09 14:00:00 18.3 14 Noroeste 28 Oeste 0 1015.4 -- 88
2020-11-09 13:00:00 18.7 14 Oeste 22 Oeste 0 1015.3 -- 82
2020-11-09 12:00:00 18.7 12 Noroeste 18 Noroeste 0 1015.3 -- 82
2020-11-09 11:00:00 17.6 9 Oeste 21 Oeste 0 1015.1 -- 72
2020-11-09 10:00:00 15 0 Calma 17 Sudoeste 0 1014.5 -- 78
2020-11-09 09:00:00 12.3 11 Sur 17 Sudoeste 0 1013.9 -- 88
2020-11-09 08:00:00 11.5 13 Sudoeste 19 Sudoeste 0 1013 -- 90
2020-11-09 07:00:00 11.4 13 Sudoeste 18 Sur 0 1012.4 -- 88
2020-11-09 06:00:00 12.1 13 Sudoeste 19 Sur 0 1012.4 -- 86
2020-11-09 05:00:00 12.8 11 Sudoeste 16 Sudoeste 0 1012.1 -- 84
2020-11-09 04:00:00 15.6 8 Sudoeste 15 Sur 0 1011.6 -- 75
2020-11-09 03:00:00 17.2 6 Oeste 15 Noroeste 0 1011.6 -- 69
2020-11-09 02:00:00 18.1 5 Sudoeste 15 Sudoeste 0 1011.2 -- 56
2020-11-09 01:00:00 18.8 5 Sudoeste 12 Sudoeste 0 1011.5 -- 54
2020-11-09 00:00:00 19.7 4 Sudoeste 22 Sur 0 1010.9 -- 53
2020-11-08 23:00:00 18.6 2 Sudeste 21 Sur 0 1010.5 -- 60
2020-11-08 22:00:00 19.7 9 Sudeste 21 Sur 0 1010.4 -- 53
2020-11-08 21:00:00 18.5 6 Oeste 14 Sur 0 1010.4 -- 57
2020-11-08 20:00:00 18.8 5 Sur 19 Sudoeste 0 1010 -- 56
2020-11-08 19:00:00 18.1 7 Sur 14 Sur 0 1009.9 -- 60
2020-11-08 18:00:00 19.9 9 Sur 17 Sudeste 0 1009.6 -- 50
2020-11-08 17:00:00 20.5 3 Sur 29 Sur 0 1009.6 -- 49
2020-11-08 16:00:00 21.5 9 Sudoeste 37 Sur 0 1009.1 -- 46
2020-11-08 15:00:00 20.7 6 Sudoeste 35 Sur 0 1008.9 -- 53
2020-11-08 14:00:00 18.7 7 Sur 28 Sudeste 0 1010.2 -- 64
2020-11-08 13:00:00 18.8 16 Sudeste 27 Sur 0 1010.3 -- 66
2020-11-08 12:00:00 18.9 8 Sur 18 Sur 0 1010.9 -- 63
2020-11-08 11:00:00 18.4 13 Sur 21 Sur 0 1011.1 -- 63
2020-11-08 10:00:00 19.4 5 Sudoeste 21 Sur 0 1011.1 -- 57
2020-11-08 09:00:00 19.4 4 Sur 20 Sur 0 1011.4 -- 57
2020-11-08 08:00:00 18.9 2 Sudoeste 15 Oeste 0 1010.9 -- 57
2020-11-08 07:00:00 18.4 4 Sudoeste 22 Sur 0 1011.1 -- 57
2020-11-08 06:00:00 18.8 5 Sur 19 Sur 0 1011.2 -- 56
2020-11-08 05:00:00 18 9 Sur 20 Sudeste 0 1011.3 -- 60
2020-11-08 04:00:00 17.5 5 Sudeste 14 Sudeste 0 1011.5 -- 60
2020-11-08 03:00:00 18.1 0 Calma 10 Sur 0 1011.9 -- 56
2020-11-08 02:00:00 17 3 Sudeste 7 Sur 0 1012.2 -- 62
2020-11-08 01:00:00 15.9 0 Calma 8 Oeste 0 1012.2 -- 73
2020-11-08 00:00:00 16.8 3 Sur 11 Sur 0 1012.3 -- 64
2020-11-07 23:00:00 15.8 4 Sur 13 Sur 0 1012.3 -- 76
2020-11-07 22:00:00 14.3 7 Sur 12 Sur 0 1012 -- 92
2020-11-07 21:00:00 14.5 5 Sur 13 Sudoeste 0 1011.7 -- 92
2020-11-07 20:00:00 14.7 10 Sur 14 Sudoeste 0 1011.3 -- 91
2020-11-07 19:00:00 15.6 8 Sur 12 Sur 0 1010.9 -- 90
2020-11-07 18:00:00 16.6 3 Sudeste 5 Sudeste 0 1010.1 -- 86
2020-11-07 17:00:00 18.1 0 Calma 10 Noroeste 0 1009.8 -- 77
2020-11-07 16:00:00 18.4 9 Noroeste 19 Noroeste 0 1009.4 -- 79
2020-11-07 15:00:00 18.9 12 Noroeste 21 Oeste 0 1008.6 -- 75
2020-11-07 14:00:00 19.7 12 Oeste 20 Oeste 0 1008.3 -- 74
2020-11-07 13:00:00 18.9 12 Oeste 22 Oeste 0 1008.4 -- 79
2020-11-07 12:00:00 18.2 5 Oeste 13 Oeste 0 1007.9 -- 85
2020-11-07 11:00:00 17.2 2 Sudoeste 14 Oeste 0 1007.6 -- 88
2020-11-07 10:00:00 16.6 2 Oeste 17 Oeste 0 1006.8 -- 90
2020-11-07 09:00:00 16.4 3 Oeste 23 Oeste 0 1005.8 -- 88
2020-11-07 08:00:00 16.5 8 Norte 22 Oeste 0 1005.3 -- 89
2020-11-07 07:00:00 16.3 6 Oeste 19 Noroeste 0 1005 -- 88
2020-11-07 06:00:00 17 14 Oeste 24 Oeste 0 1004.6 -- 85
2020-11-07 05:00:00 17.3 0 Calma 13 Sudoeste 0 1004.1 -- 79
2020-11-07 04:00:00 16.9 6 Sur 15 Oeste 0 1004.8 -- 84
2020-11-07 03:00:00 17.2 12 Oeste 23 Noroeste 0 1005.1 -- 82
2020-11-07 02:00:00 18.6 0 Calma 18 Sur 0 1005.4 -- 67
2020-11-07 01:00:00 19.5 7 Sur 23 Este 0 1004.7 -- 59
2020-11-07 00:00:00 19.2 14 Este 36 Este 0 1004.4 -- 57
2020-11-06 23:00:00 21.9 17 Sur 56 Sudeste 0 1007 -- 44
2020-11-06 22:00:00 22.4 20 Sudeste 49 Sudeste 0 1004.3 -- 56
2020-11-06 21:00:00 21.5 21 Sudeste 45 Sudeste 0 1004 -- 61
2020-11-06 20:00:00 21 14 Sudeste 46 Este 0 1004.9 -- 63
2020-11-06 19:00:00 21 17 Este 37 Este 0 1005.1 -- 63
2020-11-06 18:00:00 20.9 18 Este 33 Este 0 1005.9 -- 63
2020-11-06 17:00:00 21.8 6 Este 39 Este 0 1006.2 -- 60
2020-11-06 16:00:00 22.2 11 Este 53 Este 0 1006.1 -- 59
2020-11-06 15:00:00 22.9 25 Este 42 Este 0 1006.4 -- 53
2020-11-06 14:00:00 22.5 22 Sudeste 53 Sur 0 1007.6 -- 55
2020-11-06 13:00:00 22.1 16 Sudeste 42 Sudeste 0 1009.5 -- 56
2020-11-06 12:00:00 21.7 23 Sudeste 47 Sudeste 0 1010.4 -- 56
2020-11-06 11:00:00 20 17 Sur 52 Sudeste 0 1011.2 0.3 60
2020-11-06 10:00:00 20 27 Sudeste 53 Sudeste 0 1011.4 -- 59
2020-11-06 09:00:00 19 21 Sudeste 41 Sudeste 0 1011.5 -- 62
2020-11-06 08:00:00 18.7 20 Sudeste 46 Sur 0 1010.9 -- 61
2020-11-06 07:00:00 19.1 30 Sudeste 48 Sur 0 1010.1 -- 61
2020-11-06 06:00:00 18.5 16 Sur 32 Sur 0 1010.4 -- 66
2020-11-06 05:00:00 17.6 2 Este 17 Nordeste 0 1010.4 -- 70
2020-11-06 04:00:00 17.8 7 Este 23 Sudeste 0 1010.7 -- 70
2020-11-06 03:00:00 18 20 Nordeste 49 Este 0 1011.1 -- 72
2020-11-06 02:00:00 17.9 17 Este 44 Este 0 1011.3 -- 69
2020-11-06 01:00:00 17.8 18 Este 30 Este 0 1012.3 -- 67
2020-11-06 00:00:00 17.3 13 Este 39 Este 0 1012.5 -- 73
2020-11-05 23:00:00 17.6 26 Este 46 Este 0 1012.8 -- 65
2020-11-05 22:00:00 16.9 16 Este 39 Este 0 1013.2 -- 72
2020-11-05 21:00:00 15.2 10 Este 34 Este 0 1014 -- 88
2020-11-05 20:00:00 14.8 10 Este 36 Este 0 1014.4 -- 88
2020-11-05 19:00:00 14.8 10 Este 33 Este 0 1014.6 -- 87
2020-11-05 18:00:00 14.8 6 Este 23 Este 0 1014.9 -- 86
2020-11-05 17:00:00 15.1 9 Sudeste 32 Este 0 1015.6 -- 83
2020-11-05 16:00:00 15.3 10 Este 43 Este 0 1015.8 -- 82
2020-11-05 15:00:00 15.3 13 Este 49 Este 0 1015.9 -- 78
2020-11-05 14:00:00 14.9 30 Este 44 Este 0 1016.7 -- 75
2020-11-05 13:00:00 14.5 10 Este 33 Este 0 1018.1 -- 75
2020-11-05 12:00:00 12.9 15 Este 37 Este 0 1019.5 -- 75
2020-11-05 11:00:00 12.5 12 Este 35 Sudeste 0 1020.2 -- 72
2020-11-05 10:00:00 11.8 14 Este 30 Sudeste 0 1021.1 -- 75
2020-11-05 09:00:00 10.8 6 Sudeste 17 Sur 0 1021.3 -- 79
2020-11-05 08:00:00 10.7 6 Sudeste 20 Sudeste 0 1021.4 -- 81
2020-11-05 07:00:00 10.3 8 Sudeste 18 Sudeste 0 1021.2 -- 83
2020-11-05 06:00:00 10.2 7 Sudeste 16 Sudeste 0 1021.6 -- 85
2020-11-05 05:00:00 10.4 10 Sudeste 17 Sudeste 0 1021.9 -- 83
2020-11-05 04:00:00 11.2 8 Sudeste 17 Sudeste 0 1022 -- 80
2020-11-05 03:00:00 10.8 5 Sudeste 13 Sudeste 0 1022.3 -- 83
2020-11-05 02:00:00 11.1 9 Sudeste 14 Sudeste 0 1022.6 -- 79
2020-11-05 01:00:00 11.6 10 Sudeste 20 Sudeste 0 1022.7 -- 77
2020-11-05 00:00:00 11.8 10 Sudeste 23 Sudeste 0 1022.9 -- 77
2020-11-04 23:00:00 11.4 11 Sudeste 17 Sudeste 0 1023 -- 81
2020-11-04 22:00:00 11.1 10 Sur 23 Sudeste 0 1022.5 -- 85
2020-11-04 21:00:00 10.9 13 Sudeste 20 Sur 0 1022.4 -- 86
2020-11-04 20:00:00 10.7 5 Sudeste 29 Este 1.6 1022.3 -- 89
2020-11-04 19:00:00 11.3 13 Sudeste 48 Este 0.4 1021.9 -- 80
2020-11-04 18:00:00 12.1 9 Sudeste 26 Este 0 1021.2 -- 85
2020-11-04 17:00:00 12.9 11 Este 31 Este 0 1020.8 -- 82
2020-11-04 16:00:00 12.8 13 Este 22 Este 0 1020.8 -- 78
2020-11-04 15:00:00 12.9 9 Nordeste 17 Norte 0 1020.7 -- 78
2020-11-04 14:00:00 13.2 10 Norte 17 Norte 0 1021.2 -- 73
2020-11-04 13:00:00 13.3 5 Nordeste 15 Noroeste 0 1021.8 -- 73
2020-11-04 12:00:00 13.1 6 Noroeste 13 Noroeste 0 1022 -- 76
2020-11-04 11:00:00 13 0 Calma 9 Sudoeste 0 1022 0.1 85
2020-11-04 10:00:00 10.1 0 Calma 12 Sur 0.1 1022.4 -- 91
2020-11-04 09:00:00 9.8 8 Sur 13 Sudeste 0.2 1022 -- 91
2020-11-04 08:00:00 9.3 2 Sur 11 Sur 0 1021.9 -- 91
2020-11-04 07:00:00 9.5 0 Calma 11 Sudoeste 0 1022.2 -- 91
2020-11-04 06:00:00 9.2 4 Sudoeste 13 Sur 0 1022.5 -- 91
2020-11-04 05:00:00 9.2 2 Sur 16 Sur 0.1 1023.1 -- 91
2020-11-04 04:00:00 9.6 6 Sudoeste 19 Oeste 0.3 1023.8 -- 90
2020-11-04 03:00:00 9.7 4 Sudoeste 15 Sudoeste 0.4 1024.3 -- 88
2020-11-04 02:00:00 9.8 3 Sudoeste 14 Sudoeste 0.1 1024.9 -- 88
2020-11-04 01:00:00 10 6 Oeste 16 Sudoeste 0 1025.5 -- 88
2020-11-04 00:00:00 9.5 2 Sudoeste 15 Oeste 0 1026.3 -- 91
2020-11-03 23:00:00 9.7 4 Sudoeste 14 Sudoeste 0 1027.1 -- 92
2020-11-03 22:00:00 10.2 5 Sudoeste 17 Sudoeste 1.2 1027.8 -- 92
2020-11-03 21:00:00 10.3 3 Sudoeste 20 Oeste 1.3 1028 -- 91
2020-11-03 20:00:00 10.6 0 Calma 11 Oeste 0 1027.8 -- 91
2020-11-03 19:00:00 11 6 Sur 10 Sur 0.1 1028.2 -- 92
2020-11-03 18:00:00 11.3 4 Sudoeste 33 Norte 1.4 1028.2 -- 91
2020-11-03 17:00:00 11.8 13 Noroeste 34 Norte 0.7 1028.2 -- 87
2020-11-03 16:00:00 13.2 4 Sudoeste 16 Sudoeste 0 1028.1 -- 86
2020-11-03 15:00:00 12.7 3 Sudoeste 14 Oeste 0 1028.1 -- 90
2020-11-03 14:00:00 12.3 6 Oeste 32 Noroeste 0.4 1028.5 -- 92
2020-11-03 13:00:00 12 21 Noroeste 36 Noroeste 2.7 1028.6 -- 93
2020-11-03 12:00:00 12 13 Oeste 33 Oeste 0.3 1028.5 -- 93
2020-11-03 11:00:00 12.4 14 Oeste 32 Noroeste 0.4 1028.1 -- 93
2020-11-03 10:00:00 12 21 Noroeste 39 Oeste 0.9 1027.4 -- 92
2020-11-03 09:00:00 13.1 26 Noroeste 48 Noroeste 0 1026.4 -- 89
2020-11-03 08:00:00 13.2 14 Oeste 37 Noroeste 0 1025 -- 83
2020-11-03 07:00:00 11.4 5 Sudoeste 15 Oeste 0 1024.6 -- 89
2020-11-03 06:00:00 12.3 5 Sudoeste 15 Oeste 0 1024.6 -- 82
2020-11-03 05:00:00 12.5 4 Sudoeste 17 Oeste 0 1024 -- 91
2020-11-03 04:00:00 12.7 5 Sudoeste 23 Oeste 0 1023.9 -- 92
2020-11-03 03:00:00 12.6 0 Calma 13 Sur 0 1023.7 -- 93
2020-11-03 02:00:00 12.3 6 Sudoeste 14 Sudoeste 0 1023.2 -- 94
2020-11-03 01:00:00 12.2 4 Sur 12 Sur 0.1 1023.3 -- 94
2020-11-03 00:00:00 12.4 2 Sudoeste 10 Sur 0 1023.1 -- 94
2020-11-02 23:00:00 12.4 3 Sudoeste 9 Sur 0.9 1022.9 -- 94
2020-11-02 22:00:00 12.2 4 Oeste 20 Noroeste 1.4 1022.8 -- 94
2020-11-02 21:00:00 12.9 13 Oeste 33 Noroeste 0.8 1022.4 -- 94
2020-11-02 20:00:00 13.1 24 Noroeste 38 Noroeste 1.7 1022.1 -- 94
2020-11-02 19:00:00 13.7 3 Noroeste 23 Nordeste 0.4 1021.3 -- 93
2020-11-02 18:00:00 13.9 4 Oeste 17 Oeste 0.3 1020.8 -- 93
2020-11-02 17:00:00 14.1 7 Oeste 27 Oeste 0.2 1020.2 -- 93
2020-11-02 16:00:00 14.3 14 Oeste 42 Noroeste 0.1 1019.6 -- 93
2020-11-02 15:00:00 14.8 23 Noroeste 53 Noroeste 0.2 1019.2 -- 93
2020-11-02 14:00:00 15.7 28 Noroeste 51 Oeste 0.1 1018.1 -- 93
2020-11-02 13:00:00 17.2 29 Noroeste 66 Oeste 0 1017.4 -- 92
2020-11-02 12:00:00 20.8 23 Oeste 64 Oeste 0 1015.1 -- 69
2020-11-02 11:00:00 21.9 6 Sur 15 Sur 0 1013.7 -- 75
2020-11-02 10:00:00 16.9 11 Sur 18 Sur 0 1013.8 -- 90
2020-11-02 09:00:00 14.1 14 Sur 19 Sudoeste 0 1013.7 -- 93
2020-11-02 08:00:00 13.4 13 Sur 16 Sur 0 1014.1 -- 92
2020-11-02 07:00:00 14 5 Sudoeste 15 Sur 0 1014 -- 93
2020-11-02 06:00:00 13.8 8 Sudoeste 14 Sudoeste 0 1013.9 -- 93
2020-11-02 05:00:00 14 8 Sudoeste 16 Sudoeste 0 1013.2 -- 93
2020-11-02 04:00:00 14 13 Sudoeste 15 Sudoeste 0 1012.8 -- 92
2020-11-02 03:00:00 13.9 12 Sudoeste 15 Sur 0 1013.1 -- 93
2020-11-02 02:00:00 14.6 8 Sudoeste 17 Sudoeste 0 1013.1 -- 92
2020-11-02 01:00:00 15.1 11 Sudoeste 15 Sudoeste 0 1013.1 -- 91
2020-11-02 00:00:00 15.1 12 Sudoeste 16 Sudoeste 0 1013.5 -- 92
2020-11-01 23:00:00 16.8 5 Oeste 15 Sudoeste 0 1013.4 -- 88
2020-11-01 22:00:00 17.2 10 Sudoeste 14 Sudoeste 0 1013.1 -- 88
2020-11-01 21:00:00 18.1 3 Sudoeste 8 Sudoeste 0 1013.4 -- 81
2020-11-01 20:00:00 17.6 5 Sudoeste 11 Oeste 0 1013.7 -- 87
2020-11-01 19:00:00 18.7 5 Sudoeste 9 Oeste 0 1013.4 -- 80
2020-11-01 18:00:00 18.6 6 Oeste 13 Noroeste 0 1013.2 -- 86
2020-11-01 17:00:00 19 6 Noroeste 23 Oeste 0 1013.3 -- 88
2020-11-01 16:00:00 19.4 10 Noroeste 23 Oeste 0 1013.4 -- 84
2020-11-01 15:00:00 20.9 12 Noroeste 19 Noroeste 0 1013.5 -- 77
2020-11-01 14:00:00 23 2 Norte 10 Sur 0 1014 -- 69
2020-11-01 13:00:00 21.4 4 Sur 21 Oeste 0 1015 -- 69
2020-11-01 12:00:00 21 14 Oeste 22 Oeste 0 1015.6 -- 69
2020-11-01 11:00:00 20.1 8 Sur 10 Sur 0 1015.3 -- 78
2020-11-01 10:00:00 19.6 6 Sudoeste 12 Sur 0 1015.4 -- 74
2020-11-01 09:00:00 19.4 5 Sur 10 Sudoeste 0 1014.7 -- 72
2020-11-01 08:00:00 19.5 6 Sudoeste 14 Sur 0 1014.3 -- 69
2020-11-01 07:00:00 18 9 Sur 14 Sur 0 1014.2 -- 77
2020-11-01 06:00:00 18.2 3 Oeste 11 Sudoeste 0 1014.5 -- 73
2020-11-01 05:00:00 18 6 Sudoeste 13 Oeste 0 1014.5 -- 74
2020-11-01 04:00:00 19 5 Oeste 14 Sur 0 1014.4 -- 67
2020-11-01 03:00:00 18.5 10 Sudoeste 15 Sudoeste 0 1014.4 -- 68
2020-11-01 02:00:00 16.3 11 Sur 16 Sur 0 1014.8 -- 80
2020-11-01 01:00:00 15.5 11 Sur 14 Sur 0 1015.3 -- 86
2020-11-01 00:00:00 14.9 7 Sudoeste 15 Sudoeste 0 1015.7 -- 89
2020-10-31 23:00:00 14.4 13 Sudoeste 16 Sur 0 1015.6 -- 91
2020-10-31 22:00:00 14.5 15 Sur 19 Sudoeste 0 1015.7 -- 91
2020-10-31 21:00:00 14.8 13 Sudoeste 16 Sudoeste 0 1015.4 -- 91
2020-10-31 20:00:00 16.9 11 Sudoeste 15 Sudoeste 0 1015.8 -- 86
2020-10-31 19:00:00 16.6 9 Sur 12 Sur 0 1015.8 -- 82
2020-10-31 18:00:00 18 0 Calma -- -- 0 1015.7 -- 60
2020-10-31 17:00:00 18.3 0 Calma 9 Oeste 0 1015.7 -- 64
2020-10-31 16:00:00 19.7 0 Calma 10 Noroeste 0 1015.1 -- 68
2020-10-31 15:00:00 19.6 2 Norte 12 Noroeste 0 1015.1 -- 69
2020-10-31 14:00:00 19.1 9 Noroeste 15 Noroeste 0 1016.5 -- 81
2020-10-31 13:00:00 20.8 4 Sur 11 Sur 0 1016.1 -- 70
2020-10-31 12:00:00 18.2 0 Calma 15 Sur 0 1015.9 -- 79
2020-10-31 11:00:00 18.1 3 Oeste 21 Noroeste 0 1016.2 -- 74
2020-10-31 10:00:00 15.8 4 Sudoeste 19 Sur 0 1015.9 -- 76
2020-10-31 09:00:00 13.4 15 Sur 23 Sur 0 1015.8 -- 84
2020-10-31 08:00:00 10.5 15 Sur 17 Sur 0 1015.9 -- 90
2020-10-31 07:00:00 10.6 11 Sudoeste 18 Sudoeste 0 1016.1 -- 88
2020-10-31 06:00:00 10.8 13 Sudoeste 19 Sudoeste 0 1015.5 -- 88
2020-10-31 05:00:00 10.7 17 Sudoeste 21 Sudoeste 0 1015.3 -- 89
2020-10-31 04:00:00 10.5 15 Sur 19 Sur 0 1015.7 -- 91
2020-10-31 03:00:00 11 13 Sur 17 Sur 0 1016.4 -- 90
2020-10-31 02:00:00 11.3 12 Sudoeste 18 Sudoeste 0 1016.5 -- 91
2020-10-31 01:00:00 10.9 14 Sudoeste 19 Sudoeste 0 1016.7 -- 93
2020-10-31 00:00:00 11 14 Sur 19 Sudoeste 0 1017.5 -- 93
2020-10-30 23:00:00 11.7 14 Sudoeste 17 Sudoeste 0 1018.2 -- 93
2020-10-30 22:00:00 12.3 13 Sudoeste 17 Sudoeste 0 1018.8 -- 93
2020-10-30 21:00:00 13.1 12 Sur 14 Sur 0 1018.3 -- 93
2020-10-30 20:00:00 14.2 10 Sur 12 Sur 0 1018.5 -- 92
2020-10-30 19:00:00 15.3 6 Sur 8 Sur 0 1018.8 -- 92
2020-10-30 18:00:00 16.5 2 Este 17 Este 0 1018.9 -- 91
2020-10-30 17:00:00 17 9 Este 17 Este 0 1018.7 -- 87
2020-10-30 16:00:00 17.6 9 Este 17 Este 0 1019 -- 82
2020-10-30 15:00:00 18.5 7 Nordeste 12 Este 0 1019.3 -- 81
2020-10-30 14:00:00 17.9 8 Nordeste 13 Nordeste 0 1019.6 -- 82
2020-10-30 13:00:00 18.3 7 Nordeste 12 Nordeste 0 1019.9 -- 78
2020-10-30 12:00:00 19.4 0 Calma 9 Sudeste 0 1020.1 -- 68
2020-10-30 11:00:00 18.1 5 Sur 12 Sudoeste 0 1020.2 -- 75
2020-10-30 10:00:00 15.5 7 Sudoeste 17 Sudoeste 0 1020.4 -- 83
2020-10-30 09:00:00 14 10 Sudoeste 16 Sudoeste 0 1020.4 -- 86
2020-10-30 08:00:00 13.8 9 Sudoeste 15 Sur 0 1019.9 -- 88
2020-10-30 07:00:00 13.9 0 Calma 12 Sudoeste 0 1019.9 -- 90
2020-10-30 06:00:00 13.8 6 Sudoeste 32 Sudoeste 0 1020 -- 90
2020-10-30 05:00:00 13.6 8 Sudoeste 15 Sudoeste 0 1020 -- 92
2020-10-30 04:00:00 13.3 8 Sudoeste 16 Sudoeste 0 1019.9 -- 91
2020-10-30 03:00:00 13.1 0 Calma 14 Sur 0 1019.9 -- 92
2020-10-30 02:00:00 12.6 9 Sudoeste 15 Sur 0 1020 -- 93
2020-10-30 01:00:00 11.9 9 Sudoeste 16 Sudoeste 0 1020.5 -- 93
2020-10-30 00:00:00 11.4 9 Sudoeste 15 Sur 0 1020.6 -- 93
2020-10-29 23:00:00 11.7 10 Sudoeste 15 Sudoeste 0 1020.6 -- 93
2020-10-29 22:00:00 12.1 11 Sudoeste 15 Sur 0 1020.3 -- 93
2020-10-29 21:00:00 13.5 9 Sur 11 Sudoeste 0 1020.1 -- 92
2020-10-29 20:00:00 14 8 Sur 10 Sur 0 1020.2 -- 92
2020-10-29 19:00:00 15.2 0 Calma 12 Este 0 1019.9 -- 89
2020-10-29 18:00:00 16.7 8 Nordeste 11 Nordeste 0 1019.9 -- 83
2020-10-29 17:00:00 17.3 6 Nordeste 14 Nordeste 0 1020.2 -- 81
2020-10-29 16:00:00 17.8 8 Nordeste 13 Nordeste 0 1020.1 -- 77
2020-10-29 15:00:00 18.4 7 Nordeste 12 Este 0 1020 -- 75
2020-10-29 14:00:00 18.7 7 Nordeste 12 Este 0 1020.4 -- 74
2020-10-29 13:00:00 18.6 7 Nordeste 13 Nordeste 0 1020.9 -- 75
2020-10-29 12:00:00 18 4 Nordeste 10 Nordeste 0 1021.2 -- 81
2020-10-29 11:00:00 17.4 2 Sur 12 Sur 0 1021.3 -- 81
2020-10-29 10:00:00 14 9 Sur 14 Sudoeste 0 1021.4 -- 90
2020-10-29 09:00:00 12 10 Sudoeste 14 Sudoeste 0 1021.2 -- 91
2020-10-29 08:00:00 12.2 4 Sudoeste 15 Sur 0 1020.5 -- 91
2020-10-29 07:00:00 11.7 11 Sudoeste 14 Sudoeste 0 1020.5 -- 92
2020-10-29 06:00:00 12.6 0 Calma 15 Sur 0 1019.7 -- 92
2020-10-29 05:00:00 12.5 8 Sur 13 Sudoeste 0 1020.4 -- 92
2020-10-29 04:00:00 12.6 9 Sudoeste 13 Sudoeste 0 1020.4 -- 92
2020-10-29 03:00:00 12.5 9 Sudoeste 14 Sudoeste 0 1020.3 -- 93
2020-10-29 02:00:00 12.3 11 Sudoeste 15 Sudoeste 0 1020.3 -- 93
2020-10-29 01:00:00 12.3 11 Sudoeste 15 Sur 0 1020.2 -- 93
2020-10-29 00:00:00 13 9 Sudoeste 14 Sudoeste 0 1019.9 -- 92
2020-10-28 23:00:00 13.7 7 Sudoeste 9 Sur 0 1019.4 -- 91
2020-10-28 22:00:00 14.5 9 Sur 11 Sur 0 1018.9 -- 91
2020-10-28 21:00:00 15.5 0 Calma 8 Sur 0 1019 -- 90
2020-10-28 20:00:00 15.9 6 Sur 9 Sur 0 1018.5 -- 87
2020-10-28 19:00:00 16.6 0 Calma 7 Noroeste 0 1018.5 -- 82
2020-10-28 18:00:00 17.1 8 Noroeste 22 Noroeste 0 1017.8 -- 82
2020-10-28 17:00:00 18.5 0 Calma 8 Sur 0 1017.4 -- 69
2020-10-28 16:00:00 19.6 2 Sur 13 Sur 0 1016.6 -- 64
2020-10-28 15:00:00 19.3 5 Sur 17 Sur 0 1016.2 -- 64
2020-10-28 14:00:00 18.4 0 Calma 30 Noroeste 0 1016.5 -- 65
2020-10-28 13:00:00 17.6 16 Noroeste 28 Noroeste 0 1016.4 -- 59
2020-10-28 12:00:00 17.7 6 Noroeste 13 Noroeste 0 1016.6 -- 75
2020-10-28 11:00:00 17.4 0 Calma 9 Sur 0 1016 -- 82
2020-10-28 10:00:00 15.7 7 Sur 11 Sur 0 1015.5 -- 90
2020-10-28 09:00:00 15.2 6 Sur 9 Sur 0 1014.8 -- 90
2020-10-28 08:00:00 14.8 4 Sudoeste 10 Sur 0 1013.6 -- 92
2020-10-28 07:00:00 14.8 6 Sur 10 Sur 0 1013.2 -- 91
2020-10-28 06:00:00 15.2 2 Sudoeste 8 Sur 0 1012.7 -- 88
2020-10-28 05:00:00 15.3 5 Sur 11 Sur 0 1012.3 -- 87
2020-10-28 04:00:00 15.1 6 Sur 18 Oeste 0 1012.1 -- 87
2020-10-28 03:00:00 15.1 7 Oeste 26 Oeste 0.1 1012.3 -- 89
2020-10-28 02:00:00 15.3 14 Oeste 31 Oeste 0 1012.2 -- 92
2020-10-28 01:00:00 14.9 20 Oeste 39 Oeste 0 1011.9 -- 93
2020-10-28 00:00:00 15.1 22 Noroeste 41 Noroeste 0 1011.6 -- 92
2020-10-27 23:00:00 16.3 13 Noroeste 24 Oeste 0 1011.1 -- 92
2020-10-27 22:00:00 16.2 16 Oeste 35 Oeste 0 1010.6 -- 92
2020-10-27 21:00:00 16.3 23 Noroeste 49 Noroeste 0.1 1010.3 -- 92
2020-10-27 20:00:00 17.1 25 Noroeste 50 Noroeste 0 1009.2 -- 90
2020-10-27 19:00:00 19.1 8 Oeste 13 Oeste 0 1007.3 -- 71
2020-10-27 18:00:00 20.9 3 Sudoeste 19 Oeste 0 1006.4 -- 57
2020-10-27 17:00:00 21.1 2 Sur 9 Sur 0 1006.1 -- 62
2020-10-27 16:00:00 21.6 0 Calma -- -- 0 1005.8 -- 61
2020-10-27 15:00:00 21.6 0 Calma 9 Sudeste 0 1005.9 -- 61
2020-10-27 14:00:00 20.9 6 Sudeste 17 Sur 0 1006.6 -- 60
2020-10-27 13:00:00 18.3 6 Sur 13 Sur 0 1007.5 -- 74
2020-10-27 12:00:00 17.5 0 Calma 15 Norte 0 1008.6 -- 69
2020-10-27 11:00:00 18.3 0 Calma 16 Noroeste 0 1008.2 -- 62
2020-10-27 10:00:00 15.8 6 Noroeste 17 Noroeste 0 1008.5 -- 71
2020-10-27 09:00:00 13.6 5 Sudoeste 15 Sur 0 1008.2 -- 69
2020-10-27 08:00:00 11.5 10 Sur 14 Sur 0 1008.4 -- 89
2020-10-27 07:00:00 12.1 0 Calma 13 Sur 0 1009.3 -- 84
2020-10-27 06:00:00 11.3 11 Sudoeste 15 Sur 0 1009.5 -- 82
2020-10-27 05:00:00 10.9 13 Sur 16 Sur 0 1009.8 -- 85
2020-10-27 04:00:00 10.8 10 Sudoeste 16 Sur 0 1010.7 -- 82
2020-10-27 03:00:00 10.9 11 Sudoeste 17 Sur 0 1011.4 -- 82
2020-10-27 02:00:00 10.5 12 Sur 15 Sur 0 1011.8 -- 86
2020-10-27 01:00:00 10.9 11 Sur 14 Sudoeste 0 1012.3 -- 83
2020-10-27 00:00:00 10.8 11 Sur 14 Sur 0 1012.8 -- 88